KMTPKSYR

Guest
Details From KMTP - Montauk
To KSYR - Syracuse Hancock Intl
Flight Number -
Tags Generated
Created
Modified
Stats Distance 224 nm / 414 km
Max Altitude 0 ft / 0 m
Waypoints 3
Social Downloads 0
Likes 0
Share VATSIM

Download

Looking for another format? Having issues loading an existing format? Contact us
Advertisement - Login to hide

Notes

Generated

Route

KMTP SYR21 KSYR

ID Type Via Altitude Latitude Longitude Leg Dist Tot Dist Heading (true) Name
O KMTP APT - 0 ft / 0 m 41.07320˚ -71.92539˚ - 0 nm - -
SYR21 FIX - 0 ft / 0 m 42.96903˚ -75.80448˚ 207 nm 207 nm 305° / 302° -
O KSYR APT - 0 ft / 0 m 43.11534˚ -76.12508˚ 16 nm 223 nm 302° / 302° -

Altitude Profile

Advertisement - Login to hide

Weather


0- 5 10 15 20 25 30 35+ Temperature / ° C

Clouds and Precipitation
Forecast for 2018-05-24 00:00 UTC. Updated 3 hours ago

Ground ~20,000 ft ~40,000 ft Winds

KMTP

Details ICAO KMTP
Name MONTAUK
Region United States
Timezone America/New_York (UTC-4.0)
Stats Elevation 6 ft / 2 m (AMSL)
Location 41.076459° -71.920770°
Runways 1
Magnetic Variation 13.946° W

METAR

KMTP 240154Z AUTO 26005KT 21/12 A2996 RMK AO1 SLP144 T02060122 $

Decode

TAF

Not found

Departure Runways

ID Width Length Bearing (true) Bearing (mag) Surface Threshold Offset Overrun Length
06 75 ft / 23 m 3,479 ft / 1,060 m 46.93° 60.88° Asphalt 538 ft / 164 m 0 ft / 0 m
24 75 ft / 23 m 3,479 ft / 1,060 m 226.93° 240.88° Asphalt 456 ft / 139 m 0 ft / 0 m

KSYR

Details ICAO KSYR (SYR)
Name Syracuse Hancock Intl
Region United States
Timezone America/New_York (UTC-4.0)
Stats Elevation 421 ft / 128 m (AMSL)
Location 43.113709° -76.110828°
Runways 3
Magnetic Variation 12.353° W

METAR

KSYR 240154Z 29006KT 10SM SCT250 19/10 A3004 RMK AO2 SLP166 T01940100

Decode

TAF

KSYR 232336Z 2400/2424 26005KT P6SM SKC

Decode

Destination Runways

ID Width Length Bearing (true) Bearing (mag) Surface Threshold Offset Overrun Length
06 150 ft / 46 m 3,262 ft / 994 m 48.97° 61.32° Concrete 0 ft / 0 m 0 ft / 0 m
10 150 ft / 46 m 8,981 ft / 2,737 m 87.41° 99.76° Asphalt 0 ft / 0 m 1,000 ft / 305 m
15 150 ft / 46 m 7,494 ft / 2,284 m 133.93° 146.28° Asphalt 0 ft / 0 m 0 ft / 0 m
24 150 ft / 46 m 3,262 ft / 994 m 228.98° 241.33° Concrete 0 ft / 0 m 0 ft / 0 m
28 150 ft / 46 m 8,981 ft / 2,737 m 267.44° 279.79° Asphalt 0 ft / 0 m 0 ft / 0 m
33 150 ft / 46 m 7,494 ft / 2,284 m 313.95° 326.30° Asphalt 0 ft / 0 m 0 ft / 0 m

Approach Navaids

Runway Type Ident Frequency Range Bearing (true) Bearing (mag) Slope Elevation
10 Localiser IMRZ 109.90 MHz 18 nm / 33 km 87.44° 99.79° - 421 ft / 128 m (AMSL)
10 Glidescope IMRZ 109.90 MHz 10 nm / 19 km 87.42° 99.78° 3.00° 421 ft / 128 m (AMSL)
10 DME IMRZ 109.90 MHz 18 nm / 33 km - - - 421 ft / 128 m (AMSL)
28 Localiser ISYR 109.90 MHz 18 nm / 33 km 267.41° 279.76° - 421 ft / 128 m (AMSL)
28 Glidescope ISYR 109.90 MHz 10 nm / 19 km 267.42° 279.78° 3.00° 405 ft / 123 m (AMSL)
28 DME ISYR 109.90 MHz 18 nm / 33 km - - - 421 ft / 128 m (AMSL)